Air Navigation Services of Czech Republic
Airport: LKBC Updated:  22.04.2021 16:55:25  UTC
 METAR LKBC 22.04. 17:00 ...
METAR LKBC 221700Z AUTO 36006KT 290V040 9999 FEW072 BKN160 08/M02 Q1019=